Sosua, Dominican Republic
Current Conditions -  °F | °C
As of 11:00 PM on Sunday 19 Oct 2014 (Local Time) from MDPP Reporting Station
Scattered Clouds Scattered Clouds  
Wind Chill: 77°   Ceiling: Unl
Heat Index: 78°   Visibility: 6mi
Dew Point: 75°   Wind: 0mph
Humidity: 94%   Direction: NA
Pressure: 29.97"   Gusts: NA
Location:  19.75°N, 70.52°W
Report Text: MDPP 200300Z 00000KT 9999 FEW017CB SCT018 25/24 Q1015 CB/W/N
Loading
Personal Weather Stations






























Interactive Weather Map
Tropical Storm Tracking
New forecast layout! Learn more

10-Day Weather Forecast

Advertisements
Track Severe Weather on mobile